Time;durP1;ratioP1;P1;durP2;ratioP2;P2;SDS_P1;SDS_P2;PMS_P1;PMS_P2;Temp;Humidity;BMP_temperature;BMP_pressure;BME280_temperature;BME280_humidity;BME280_pressure;Samples;Min_cycle;Max_cycle;Signal;HPM_P1;HPM_P2
2023/02/21 02:15:36;;;;;;;63.50;24.48;;;;;;;-10.89;62.05;97511.34;5051657;28;20033;-53
2023/02/21 02:18:05;;;;;;;55.80;21.38;;;;;;;-10.92;62.30;97511.44;5033137;28;20037;-55
2023/02/21 02:20:49;;;;;;;58.75;23.83;;;;;;;-10.97;61.84;97485.78;5034327;28;20465;-55
2023/02/21 02:23:33;;;;;;;72.47;29.00;;;;;;;-10.90;61.63;97514.81;5054014;28;20041;-52
2023/02/21 02:26:23;;;;;;;54.08;18.77;;;;;;;-10.72;61.34;97512.56;5053912;28;20432;-52
2023/02/21 02:29:24;;;;;;;43.25;13.95;;;;;;;-10.80;61.34;97514.56;5053765;28;20091;-58
2023/02/21 02:31:55;;;;;;;33.35;12.30;;;;;;;-10.87;61.36;97514.72;5053484;28;20032;-56
2023/02/21 02:34:34;;;;;;;62.15;23.40;;;;;;;-10.98;60.71;97517.66;5053133;28;20440;-48
2023/02/21 02:37:22;;;;;;;47.55;18.15;;;;;;;-10.93;61.29;97508.94;5036766;28;20460;-51
2023/02/21 02:39:52;;;;;;;57.53;24.55;;;;;;;-11.05;61.22;97517.91;5033941;28;20064;-53
2023/02/21 02:42:36;;;;;;;50.25;16.85;;;;;;;-11.07;61.35;97515.34;5033646;28;20034;-50
2023/02/21 02:45:17;;;;;;;50.05;19.15;;;;;;;-10.86;61.12;97510.41;5033359;28;20030;-52
2023/02/21 02:47:47;;;;;;;29.77;11.35;;;;;;;-10.65;60.31;97513.22;5033576;28;20468;-52
2023/02/21 02:50:13;;;;;;;55.80;21.70;;;;;;;-10.82;60.59;97507.69;5033446;28;20041;-52
2023/02/21 02:52:50;;;;;;;37.00;12.20;;;;;;;-11.02;60.92;97468.72;5032874;28;20041;-51
2023/02/21 02:55:21;;;;;;;52.08;18.23;;;;;;;-10.70;60.02;97503.88;5037389;28;20047;-52
2023/02/21 02:57:47;;;;;;;25.50;8.63;;;;;;;-10.73;60.19;97506.56;5053396;28;20052;-49
2023/02/21 03:00:14;;;;;;;59.90;22.23;;;;;;;-10.77;59.64;97509.28;5051050;28;20075;-51
2023/02/21 03:03:14;;;;;;;49.83;17.67;;;;;;;-10.72;60.23;97512.56;5053172;28;20036;-52
2023/02/21 03:06:04;;;;;;;46.35;18.85;;;;;;;-10.90;60.72;97506.25;5053385;28;20032;-51
2023/02/21 03:08:49;;;;;;;42.72;13.30;;;;;;;-10.87;60.07;97509.56;5052570;28;20033;-50
2023/02/21 03:11:18;;;;;;;19.83;8.20;;;;;;;-10.84;59.69;97485.38;5052722;28;20444;-51
2023/02/21 03:13:56;;;;;;;53.00;18.52;;;;;;;-11.00;60.33;97503.09;5051336;28;20332;-55
2023/02/21 03:16:25;;;;;;;45.13;18.67;;;;;;;-11.08;60.67;97508.50;5052996;28;20033;-53
2023/02/21 03:19:12;;;;;;;25.20;9.57;;;;;;;-10.64;59.00;97505.41;5052672;28;20043;-51
2023/02/21 03:21:48;;;;;;;47.90;20.05;;;;;;;-10.79;59.03;97505.91;5035279;28;20112;-52
2023/02/21 03:24:16;;;;;;;45.88;18.23;;;;;;;-10.88;59.53;97502.69;5053248;28;20025;-54
2023/02/21 03:26:45;;;;;;;47.70;18.95;;;;;;;-11.02;60.00;97502.31;5052652;28;20207;-55
2023/02/21 03:29:11;;;;;;;50.13;18.52;;;;;;;-11.33;60.05;97470.50;5051017;28;20029;-54
2023/02/21 03:31:43;;;;;;;37.15;13.48;;;;;;;-11.02;60.49;97515.22;5051916;28;20036;-50
2023/02/21 03:34:09;;;;;;;46.92;15.32;;;;;;;-10.99;59.78;97510.78;5042643;28;20025;-51
2023/02/21 03:36:36;;;;;;;46.53;16.45;;;;;;;-11.06;59.88;97509.28;5032324;28;20051;-54
2023/02/21 03:39:02;;;;;;;43.33;17.10;;;;;;;-11.15;60.18;97505.25;5031280;28;20163;-52
2023/02/21 03:41:28;;;;;;;43.90;16.98;;;;;;;-11.13;60.46;97512.97;5032738;28;20022;-51
2023/02/21 03:43:53;;;;;;;29.88;10.77;;;;;;;-11.03;59.88;97509.19;5032861;28;20029;-57
2023/02/21 03:46:19;;;;;;;37.05;16.02;;;;;;;-11.14;59.88;97508.69;5032894;28;20037;-51
2023/02/21 03:48:44;;;;;;;46.35;18.05;;;;;;;-11.13;59.48;97503.47;5031858;28;20177;-55
2023/02/21 03:51:10;;;;;;;39.75;16.77;;;;;;;-11.37;59.73;97488.69;5032354;28;20049;-54
2023/02/21 03:53:36;;;;;;;42.13;17.52;;;;;;;-11.41;60.59;97496.56;5032633;28;20135;-55
2023/02/21 03:56:02;;;;;;;44.75;17.80;;;;;;;-11.76;61.00;97449.38;5033470;28;20100;-55
2023/02/21 03:58:27;;;;;;;51.03;19.05;;;;;;;-11.56;61.26;97492.69;5032068;28;20037;-55
2023/02/21 04:00:53;;;;;;;39.95;16.90;;;;;;;-11.47;61.16;97489.00;5032363;28;20104;-55
2023/02/21 04:03:19;;;;;;;45.38;17.08;;;;;;;-11.47;61.14;97501.03;5032730;28;20041;-55
2023/02/21 04:05:44;;;;;;;22.20;9.32;;;;;;;-11.36;60.24;97451.66;5031735;28;20375;-52
2023/02/21 04:08:10;;;;;;;35.03;14.45;;;;;;;-11.31;59.97;97499.72;5030810;28;20105;-51
2023/02/21 04:10:35;;;;;;;40.20;16.42;;;;;;;-11.39;60.29;97487.00;5031901;28;20032;-52
2023/02/21 04:13:01;;;;;;;47.58;18.67;;;;;;;-11.56;60.46;97487.53;5031669;28;20419;-51
2023/02/21 04:15:26;;;;;;;48.28;19.20;;;;;;;-11.79;60.97;97479.59;5032330;28;20072;-55
2023/02/21 04:17:52;;;;;;;48.35;19.50;;;;;;;-11.77;60.98;97489.00;5033269;28;20432;-56
2023/02/21 04:20:17;;;;;;;56.25;20.85;;;;;;;-11.67;60.74;97489.56;5032072;28;20033;-52
2023/02/21 04:22:43;;;;;;;46.85;18.73;;;;;;;-11.63;60.91;97492.91;5032160;28;20029;-54
2023/02/21 04:25:09;;;;;;;51.83;20.25;;;;;;;-12.00;61.23;97450.91;5031841;28;20338;-52
2023/02/21 04:27:35;;;;;;;58.72;23.45;;;;;;;-11.72;60.90;97492.28;5032098;28;20057;-52
2023/02/21 04:30:01;;;;;;;52.38;19.23;;;;;;;-11.86;60.71;97463.44;5032886;28;20476;-51
2023/02/21 04:32:28;;;;;;;48.65;20.90;;;;;;;-11.74;60.70;97498.38;5031586;28;20061;-51
2023/02/21 04:34:54;;;;;;;47.63;20.20;;;;;;;-11.75;61.08;97507.00;5032318;28;20087;-55
2023/02/21 04:37:20;;;;;;;48.42;20.08;;;;;;;-11.79;60.86;97498.50;5031896;28;20072;-51
2023/02/21 04:39:45;;;;;;;49.50;19.38;;;;;;;-11.75;60.86;97510.44;5047957;28;20785;-55
2023/02/21 04:42:11;;;;;;;49.13;19.20;;;;;;;-11.76;61.00;97506.16;5054270;28;20025;-54
2023/02/21 04:44:37;;;;;;;50.75;19.00;;;;;;;-11.78;61.25;97518.28;5055818;28;20029;-54
2023/02/21 04:47:03;;;;;;;51.30;20.10;;;;;;;-11.82;60.79;97524.38;5055645;28;20040;-56
2023/02/21 04:49:28;;;;;;;45.30;19.17;;;;;;;-11.92;60.82;97518.66;5055504;28;20029;-51
2023/02/21 04:51:54;;;;;;;46.08;19.73;;;;;;;-11.98;60.81;97519.66;5056131;28;20075;-51
2023/02/21 04:54:19;;;;;;;54.10;21.35;;;;;;;-12.16;61.09;97497.81;5055358;28;20029;-53
2023/02/21 04:56:45;;;;;;;52.42;21.15;;;;;;;-12.05;61.02;97512.16;5054657;28;20376;-53
2023/02/21 04:59:10;;;;;;;51.13;20.38;;;;;;;-12.04;60.91;97517.28;5055510;28;20044;-53
2023/02/21 05:01:36;;;;;;;55.40;21.77;;;;;;;-11.91;60.59;97522.94;5042143;28;20100;-55
2023/02/21 05:04:02;;;;;;;52.22;21.60;;;;;;;-11.91;60.77;97530.66;5035173;28;20124;-54
2023/02/21 05:06:29;;;;;;;54.65;22.20;;;;;;;-11.93;61.17;97527.28;5035416;28;20033;-60
2023/02/21 05:08:56;;;;;;;53.90;20.38;;;;;;;-11.79;60.47;97534.66;5035828;28;20026;-54
2023/02/21 05:11:22;;;;;;;54.10;21.10;;;;;;;-11.73;60.08;97518.13;5035449;28;20107;-52
2023/02/21 05:13:48;;;;;;;52.80;20.73;;;;;;;-11.58;60.13;97516.84;5034986;28;20022;-56
2023/02/21 05:16:14;;;;;;;59.25;22.48;;;;;;;-11.39;59.01;97515.44;5034515;28;20407;-51
2023/02/21 05:18:45;;;;;;;50.17;20.50;;;;;;;-11.57;58.98;97510.81;5035424;28;20049;-53
2023/02/21 05:21:10;;;;;;;54.60;21.10;;;;;;;-11.70;59.39;97482.75;5035273;28;20064;-51
2023/02/21 05:23:39;;;;;;;51.53;20.63;;;;;;;-11.36;59.24;97532.59;5035608;28;20113;-54
2023/02/21 05:26:07;;;;;;;55.83;21.60;;;;;;;-11.20;58.65;97530.38;5033931;28;20519;-53
2023/02/21 05:28:33;;;;;;;48.97;20.05;;;;;;;-11.10;59.00;97531.78;5035384;28;20379;-55
2023/02/21 05:30:59;;;;;;;47.42;20.88;;;;;;;-10.92;58.16;97532.13;5035420;28;20471;-62
2023/02/21 05:33:24;;;;;;;53.33;20.42;;;;;;;-10.70;57.20;97537.50;5034986;28;20068;-52
2023/02/21 05:35:51;;;;;;;57.47;23.95;;;;;;;-10.70;57.21;97527.16;5034680;28;20395;-52
2023/02/21 05:38:19;;;;;;;55.58;23.63;;;;;;;-9.93;56.66;97516.81;5034844;28;20124;-50
2023/02/21 05:40:44;;;;;;;57.17;20.70;;;;;;;-8.92;55.69;97501.03;5034993;28;20068;-54
2023/02/21 05:43:10;;;;;;;52.28;21.83;;;;;;;-7.30;52.28;97530.59;5042618;28;20065;-54
2023/02/21 05:45:35;;;;;;;48.35;21.95;;;;;;;-5.91;48.00;97516.13;5054663;28;20025;-53
2023/02/21 05:48:01;;;;;;;54.25;22.90;;;;;;;-4.83;46.26;97515.75;5054986;28;20378;-53
2023/02/21 05:50:28;;;;;;;56.92;21.08;;;;;;;-3.94;44.42;97517.66;5055133;28;20057;-55
2023/02/21 05:52:57;;;;;;;48.72;21.42;;;;;;;-3.19;41.76;97468.75;5053131;28;20404;-52
2023/02/21 05:55:23;;;;;;;48.63;21.88;;;;;;;-1.93;40.95;97507.88;5054185;28;20037;-53
2023/02/21 05:57:48;;;;;;;51.83;23.48;;;;;;;-1.11;38.73;97518.06;5053857;28;20033;-52
2023/02/21 06:00:22;;;;;;;57.80;26.67;;;;;;;-0.60;37.76;97506.59;5054154;28;20036;-52
2023/02/21 06:02:49;;;;;;;59.95;25.75;;;;;;;-0.18;36.59;97474.63;5054196;28;20087;-55
2023/02/21 06:05:16;;;;;;;56.17;26.05;;;;;;;0.39;36.14;97508.13;5043032;28;20112;-58
2023/02/21 06:07:41;;;;;;;56.50;26.30;;;;;;;0.81;35.20;97500.50;5034068;28;20109;-54
2023/02/21 06:10:07;;;;;;;54.42;26.33;;;;;;;1.56;33.96;97508.66;5033905;28;20124;-55
2023/02/21 06:12:32;;;;;;;56.95;26.48;;;;;;;2.40;32.41;97504.44;5033866;28;20452;-57
2023/02/21 06:14:58;;;;;;;56.92;26.00;;;;;;;2.91;31.03;97494.03;5034082;28;20033;-54
2023/02/21 06:17:24;;;;;;;52.08;25.58;;;;;;;3.02;31.18;97490.44;5034009;28;20511;-54
2023/02/21 06:19:49;;;;;;;52.38;24.88;;;;;;;3.51;29.71;97501.13;5033563;28;20036;-54
2023/02/21 06:22:15;;;;;;;51.10;25.50;;;;;;;4.26;28.96;97502.41;5033745;28;20426;-53
2023/02/21 06:24:41;;;;;;;50.10;26.45;;;;;;;4.62;27.65;97499.97;5033839;28;20353;-52
2023/02/21 06:27:06;;;;;;;45.70;20.95;;;;;;;4.64;27.07;97505.97;5043308;28;20025;-51
2023/02/21 06:29:32;;;;;;;35.92;18.40;;;;;;;4.43;27.98;97491.09;5053452;28;20029;-61
2023/02/21 06:31:58;;;;;;;47.03;21.13;;;;;;;4.46;27.00;97513.81;5054050;28;20029;-65
2023/02/21 06:34:24;;;;;;;52.47;26.20;;;;;;;3.48;27.05;97495.25;5053271;28;20045;-64
2023/02/21 06:36:54;;;;;;;47.30;24.08;;;;;;;4.07;26.79;97509.38;5053368;28;20036;-65
2023/02/21 06:39:20;;;;;;;49.20;24.67;;;;;;;5.14;26.00;97502.16;5053976;28;20033;-66
2023/02/21 06:41:45;;;;;;;46.97;24.00;;;;;;;6.49;24.20;97508.63;5052647;28;20040;-65
2023/02/21 06:44:11;;;;;;;48.00;23.85;;;;;;;7.49;23.13;97505.50;5050673;28;20179;-62
2023/02/21 06:46:37;;;;;;;47.05;24.20;;;;;;;8.32;21.89;97508.28;5050682;28;20060;-62
2023/02/21 06:49:03;;;;;;;45.90;24.85;;;;;;;9.09;21.31;97501.69;5053834;28;20336;-61
2023/02/21 06:51:36;;;;;;;50.45;23.95;;;;;;;9.74;22.54;97520.28;5053159;28;20029;-61
2023/02/21 06:54:03;;;;;;;45.58;24.58;;;;;;;9.03;20.55;97507.69;5053445;28;20111;-62
2023/02/21 06:56:29;;;;;;;45.42;24.30;;;;;;;9.08;19.93;97510.72;5053556;28;20036;-61
2023/02/21 06:58:56;;;;;;;46.85;23.95;;;;;;;8.82;20.03;97513.59;5047702;28;20037;-61
2023/02/21 07:01:22;;;;;;;42.42;24.70;;;;;;;8.85;19.85;97506.09;5052923;28;20033;-60
2023/02/21 07:03:48;;;;;;;45.38;24.63;;;;;;;9.34;19.44;97507.75;5049454;28;20458;-70
2023/02/21 07:06:14;;;;;;;39.28;20.17;;;;;;;10.09;18.57;97515.38;5044287;28;20044;-64
2023/02/21 07:08:40;;;;;;;39.70;23.00;;;;;;;8.44;18.41;97514.13;5034111;28;20040;-63
2023/02/21 07:11:06;;;;;;;46.80;24.80;;;;;;;7.54;19.60;97523.63;5033667;28;20364;-65
2023/02/21 07:13:32;;;;;;;44.38;23.70;;;;;;;7.63;20.09;97521.84;5032597;28;20033;-63
2023/02/21 07:15:57;;;;;;;42.60;23.60;;;;;;;8.63;19.05;97520.97;5033161;28;20187;-63
2023/02/21 07:18:23;;;;;;;41.88;23.60;;;;;;;9.01;18.85;97489.22;5032347;28;20499;-63
2023/02/21 07:20:48;;;;;;;39.15;23.45;;;;;;;9.49;18.31;97512.38;5046919;28;20029;-57
2023/02/21 07:23:14;;;;;;;40.00;24.15;;;;;;;9.64;18.13;97515.16;5051846;28;20033;-65
2023/02/21 07:25:39;;;;;;;36.95;23.70;;;;;;;10.10;18.28;97516.22;5052804;28;20047;-64
2023/02/21 07:28:05;;;;;;;36.47;22.58;;;;;;;10.61;17.57;97516.50;5049095;28;20171;-73
2023/02/21 07:30:31;;;;;;;33.40;21.70;;;;;;;10.79;17.48;97522.53;5052168;28;20364;-64
2023/02/21 07:32:57;;;;;;;35.58;22.10;;;;;;;10.97;17.66;97523.00;5052005;28;20355;-64
2023/02/21 07:35:22;;;;;;;36.88;23.70;;;;;;;11.23;17.36;97508.34;5051891;28;20068;-64
2023/02/21 07:37:48;;;;;;;35.55;22.55;;;;;;;10.76;17.09;97519.19;5051231;28;20041;-64
2023/02/21 07:40:13;;;;;;;35.47;22.25;;;;;;;10.35;17.85;97524.88;5048005;28;20029;-64
2023/02/21 07:42:42;;;;;;;33.45;21.10;;;;;;;10.44;18.81;97531.03;5037100;28;20040;-63
2023/02/21 07:45:09;;;;;;;34.88;21.85;;;;;;;9.72;18.09;97531.13;5034451;28;20497;-65
2023/02/21 07:47:34;;;;;;;34.42;21.77;;;;;;;9.52;18.12;97528.06;5052001;28;20025;-63
2023/02/21 07:50:00;;;;;;;42.30;21.77;;;;;;;9.22;18.30;97527.84;5049534;28;20431;-64
2023/02/21 07:52:25;;;;;;;36.92;21.52;;;;;;;8.85;18.68;97524.78;5052240;28;20792;-65
2023/02/21 07:54:51;;;;;;;33.50;19.65;;;;;;;8.65;18.30;97524.28;5051609;28;20094;-64
2023/02/21 07:57:17;;;;;;;37.72;21.00;;;;;;;7.39;19.38;97534.06;5051527;28;20029;-64
2023/02/21 07:59:42;;;;;;;38.65;22.38;;;;;;;5.83;20.86;97530.97;5050410;28;20298;-66
2023/02/21 08:02:10;;;;;;;41.95;24.13;;;;;;;3.80;22.08;97542.69;5036447;28;20045;-60
2023/02/21 08:04:35;;;;;;;40.05;22.05;;;;;;;1.82;24.76;97555.00;5045222;28;20037;-60
2023/02/21 08:07:02;;;;;;;40.67;21.27;;;;;;;0.51;26.57;97559.84;5050291;28;20090;-55
2023/02/21 08:09:28;;;;;;;40.42;20.98;;;;;;;-0.69;28.00;97548.44;5051616;28;20028;-61
2023/02/21 08:11:53;;;;;;;45.47;21.33;;;;;;;-1.67;28.97;97553.34;5051694;28;20029;-55
2023/02/21 08:14:19;;;;;;;31.42;14.10;;;;;;;-1.91;29.33;97556.66;5049926;28;20047;-51
2023/02/21 08:16:44;;;;;;;23.80;8.88;;;;;;;-3.18;30.54;97520.16;5053393;28;20358;-56
2023/02/21 08:19:10;;;;;;;33.65;14.60;;;;;;;-4.35;32.46;97560.09;5052235;28;20059;-58
2023/02/21 08:21:35;;;;;;;40.33;19.65;;;;;;;-5.66;34.83;97537.50;5054819;28;20098;-55
2023/02/21 08:24:01;;;;;;;41.40;18.30;;;;;;;-6.15;36.35;97572.09;5055502;28;20029;-57
2023/02/21 08:26:26;;;;;;;35.15;14.57;;;;;;;-6.39;36.87;97559.38;5055368;28;20029;-59
2023/02/21 08:28:52;;;;;;;40.53;18.00;;;;;;;-6.79;38.42;97562.94;5055033;28;20104;-57
2023/02/21 08:31:17;;;;;;;42.85;17.45;;;;;;;-6.66;38.21;97570.19;5055803;28;20025;-56
2023/02/21 08:33:43;;;;;;;40.47;19.02;;;;;;;-6.93;39.06;97571.38;5054985;28;20040;-58
2023/02/21 08:36:09;;;;;;;43.42;18.08;;;;;;;-6.64;38.40;97571.78;5043896;28;20045;-56
2023/02/21 08:38:35;;;;;;;41.45;17.15;;;;;;;-6.74;39.11;97567.94;5036345;28;20106;-55
2023/02/21 08:41:01;;;;;;;42.97;18.50;;;;;;;-6.91;39.82;97576.53;5052725;28;20363;-58
2023/02/21 08:43:27;;;;;;;38.38;14.93;;;;;;;-7.02;39.57;97527.59;5055314;28;20059;-58
2023/02/21 08:45:53;;;;;;;24.77;9.60;;;;;;;-6.82;39.20;97572.66;5053509;28;20126;-54
2023/02/21 08:48:18;;;;;;;38.15;16.25;;;;;;;-6.98;41.20;97568.16;5052956;28;20024;-66
2023/02/21 08:50:44;;;;;;;43.85;17.42;;;;;;;-6.68;39.75;97569.41;5048442;28;20029;-65
2023/02/21 08:53:13;;;;;;;37.65;16.95;;;;;;;-6.57;39.65;97571.50;5048030;28;20045;-60
2023/02/21 08:55:39;;;;;;;42.97;17.92;;;;;;;-6.47;39.65;97567.53;5055138;28;20036;-61
2023/02/21 08:58:05;;;;;;;38.80;17.20;;;;;;;-6.21;39.30;97558.47;5045125;28;20033;-62
2023/02/21 09:00:30;;;;;;;38.88;18.17;;;;;;;-6.00;39.39;97562.66;5035226;28;20026;-61
2023/02/21 09:02:58;;;;;;;38.63;17.85;;;;;;;-5.72;38.69;97562.13;5033902;28;20367;-64
2023/02/21 09:05:26;;;;;;;40.55;17.13;;;;;;;-5.50;38.19;97559.25;5043516;28;20036;-63
2023/02/21 09:08:00;;;;;;;35.90;16.50;;;;;;;-5.50;38.55;97553.19;5053841;28;20478;-63
2023/02/21 09:10:32;;;;;;;46.45;19.25;;;;;;;-5.35;38.20;97567.19;5054853;28;20075;-61
2023/02/21 09:12:58;;;;;;;40.75;17.90;;;;;;;-5.21;38.24;97559.47;5054022;28;20125;-65
2023/02/21 09:15:24;;;;;;;34.83;16.80;;;;;;;-5.09;37.51;97563.19;5050172;28;20354;-63
2023/02/21 09:17:50;;;;;;;38.65;17.50;;;;;;;-5.21;37.93;97564.69;5037335;28;20059;-63
2023/02/21 09:20:18;;;;;;;34.00;16.85;;;;;;;-5.23;37.94;97565.72;5040171;28;20459;-59
2023/02/21 09:22:44;;;;;;;35.05;16.13;;;;;;;-5.57;38.18;97580.50;5034364;28;20108;-61
2023/02/21 09:25:12;;;;;;;30.42;14.73;;;;;;;-5.63;39.15;97569.47;5034404;28;20076;-59
2023/02/21 09:27:39;;;;;;;30.90;13.15;;;;;;;-5.39;38.28;97565.69;5047080;28;20426;-63
2023/02/21 09:30:08;;;;;;;31.02;14.32;;;;;;;-5.40;38.36;97561.38;5044701;28;20367;-57
2023/02/21 09:32:35;;;;;;;38.28;16.00;;;;;;;-5.40;38.50;97559.59;5039771;28;20083;-62
2023/02/21 09:35:02;;;;;;;32.22;15.18;;;;;;;-5.43;38.72;97559.78;5042550;28;20072;-61
2023/02/21 09:37:29;;;;;;;39.08;17.30;;;;;;;-5.34;38.54;97568.88;5036481;28;20041;-61
2023/02/21 09:39:55;;;;;;;40.88;18.52;;;;;;;-5.28;38.40;97560.72;5034771;28;20028;-66
2023/02/21 09:42:27;;;;;;;34.13;16.38;;;;;;;-5.09;38.89;97567.59;5034644;28;20448;-58
2023/02/21 09:44:52;;;;;;;35.53;17.27;;;;;;;-4.96;38.30;97563.38;5034109;28;20484;-59
2023/02/21 09:47:26;;;;;;;38.20;17.08;;;;;;;-4.79;38.56;97565.09;5047297;28;20048;-60
2023/02/21 09:49:58;;;;;;;33.05;16.20;;;;;;;-4.70;37.82;97562.91;5047353;28;20029;-66
2023/02/21 09:52:36;;;;;;;35.40;16.17;;;;;;;-4.90;37.89;97521.31;5033748;28;20037;-59
2023/02/21 09:55:26;;;;;;;37.00;17.33;;;;;;;-4.93;38.23;97559.78;5033873;28;20025;-55
2023/02/21 09:57:52;;;;;;;38.42;16.65;;;;;;;-5.50;38.60;97547.97;5035784;28;20053;-56
2023/02/21 10:00:24;;;;;;;35.45;16.70;;;;;;;-5.45;39.13;97574.66;5053300;28;20079;-55
2023/02/21 10:02:58;;;;;;;35.38;14.75;;;;;;;-5.13;39.22;97571.28;5046795;28;20025;-55
2023/02/21 10:05:37;;;;;;;31.60;14.30;;;;;;;-5.16;38.40;97555.81;5034125;28;20045;-58
2023/02/21 10:08:37;;;;;;;33.63;15.45;;;;;;;-5.46;38.95;97570.38;5035384;28;20314;-57
2023/02/21 10:11:13;;;;;;;33.38;15.50;;;;;;;-5.98;39.62;97538.22;5040585;28;20043;-58
2023/02/21 10:13:44;;;;;;;38.08;16.30;;;;;;;-5.95;40.27;97574.53;5043684;28;20034;-62
2023/02/21 10:16:15;;;;;;;34.45;15.70;;;;;;;-5.93;40.49;97574.44;5033992;28;20029;-60
2023/02/21 10:18:48;;;;;;;36.17;17.13;;;;;;;-5.97;40.53;97571.19;5050778;28;20451;-62
2023/02/21 10:21:36;;;;;;;38.17;16.40;;;;;;;-6.04;40.39;97569.81;5053172;28;20371;-64
2023/02/21 10:24:09;;;;;;;33.00;15.63;;;;;;;-6.16;41.01;97575.63;5059340;28;20094;-54
2023/02/21 10:26:55;;;;;;;36.00;15.43;;;;;;;-6.17;41.22;97584.38;5073031;28;20029;-55
2023/02/21 10:29:24;;;;;;;35.05;16.58;;;;;;;-6.24;40.97;97578.59;5067567;28;20039;-55
2023/02/21 10:31:55;;;;;;;33.38;15.80;;;;;;;-6.34;41.72;97588.63;5052900;28;20083;-63
2023/02/21 10:34:26;;;;;;;37.45;16.20;;;;;;;-6.36;41.23;97577.44;5052613;28;20444;-61
2023/02/21 10:36:54;;;;;;;38.95;16.63;;;;;;;-6.28;41.96;97587.50;5046076;28;20345;-61
2023/02/21 10:39:57;;;;;;;36.30;16.08;;;;;;;-6.06;41.89;97597.69;5032480;28;20048;-61
2023/02/21 10:42:30;;;;;;;37.15;17.88;;;;;;;-5.80;41.23;97598.13;5033637;28;20044;-52
2023/02/21 10:44:57;;;;;;;37.25;17.17;;;;;;;-5.70;40.68;97609.81;5055139;28;20047;-57
2023/02/21 10:47:46;;;;;;;33.55;16.38;;;;;;;-5.71;41.27;97600.31;5037056;28;20038;-57
2023/02/21 10:50:12;;;;;;;37.15;16.23;;;;;;;-5.64;40.72;97601.66;5033149;28;20101;-54
2023/02/21 10:52:47;;;;;;;40.00;16.23;;;;;;;-5.77;41.42;97584.97;5032608;28;20077;-63
2023/02/21 10:55:19;;;;;;;39.42;16.50;;;;;;;-5.63;41.32;97610.34;5033083;28;20111;-57
2023/02/21 10:57:49;;;;;;;39.28;18.33;;;;;;;-5.64;41.38;97612.09;5032620;28;20035;-60
2023/02/21 11:00:35;;;;;;;40.03;18.67;;;;;;;-5.59;41.49;97616.22;5032350;28;20045;-58
2023/02/21 11:03:17;;;;;;;35.42;16.70;;;;;;;-5.62;41.25;97615.47;5032715;28;20039;-58
2023/02/21 11:05:51;;;;;;;43.78;18.65;;;;;;;-5.67;41.07;97627.03;5032824;28;20068;-58
2023/02/21 11:08:35;;;;;;;35.58;16.13;;;;;;;-5.86;41.12;97622.75;5047903;28;20029;-57
2023/02/21 11:11:02;;;;;;;35.35;16.23;;;;;;;-6.12;41.74;97624.06;5052052;28;20035;-55
2023/02/21 11:13:29;;;;;;;34.20;15.75;;;;;;;-6.27;41.87;97636.91;5052392;28;20523;-59
2023/02/21 11:16:16;;;;;;;30.88;14.25;;;;;;;-6.43;41.88;97626.34;5052854;28;20028;-56
2023/02/21 11:18:42;;;;;;;32.83;14.23;;;;;;;-6.60;42.00;97624.53;5051516;28;20112;-56
2023/02/21 11:21:18;;;;;;;30.88;14.45;;;;;;;-6.83;42.09;97599.59;5052043;28;20171;-56
2023/02/21 11:23:44;;;;;;;29.90;14.23;;;;;;;-6.67;42.35;97623.16;5052322;28;20076;-56
2023/02/21 11:26:11;;;;;;;31.27;14.02;;;;;;;-6.61;42.58;97629.84;5050520;28;20060;-55
2023/02/21 11:28:42;;;;;;;33.97;14.82;;;;;;;-6.85;42.50;97604.03;5052155;28;20033;-56
2023/02/21 11:31:30;;;;;;;34.75;15.32;;;;;;;-6.87;43.19;97629.25;5051655;28;20029;-61
2023/02/21 11:34:03;;;;;;;26.88;13.63;;;;;;;-6.85;43.19;97643.88;5051495;28;20067;-57
2023/02/21 11:36:35;;;;;;;33.67;14.20;;;;;;;-6.83;42.91;97652.47;5042526;28;20049;-57
2023/02/21 11:39:03;;;;;;;31.05;13.65;;;;;;;-6.80;43.09;97643.69;5032157;28;20052;-59
2023/02/21 11:41:47;;;;;;;31.05;14.90;;;;;;;-6.89;43.48;97618.91;5030838;28;20106;-56
2023/02/21 11:44:34;;;;;;;29.35;13.75;;;;;;;-6.67;43.01;97651.78;5032715;28;20029;-58
2023/02/21 11:47:12;;;;;;;29.35;14.60;;;;;;;-6.59;43.17;97654.88;5032406;28;20036;-65
2023/02/21 11:49:58;;;;;;;31.58;14.77;;;;;;;-6.47;43.35;97660.44;5032100;28;20044;-65
2023/02/21 11:52:31;;;;;;;31.55;14.50;;;;;;;-6.40;42.79;97656.63;5031281;28;20029;-66
2023/02/21 11:54:57;;;;;;;33.40;14.73;;;;;;;-6.41;43.02;97649.72;5042008;28;20025;-66
2023/02/21 11:57:25;;;;;;;33.08;14.57;;;;;;;-6.33;43.13;97659.78;5051693;28;20127;-55
2023/02/21 12:00:13;;;;;;;28.88;14.02;;;;;;;-6.34;43.26;97661.53;5031535;28;20111;-57
2023/02/21 12:02:58;;;;;;;30.60;13.27;;;;;;;-6.37;43.35;97659.06;5031444;28;20037;-55
2023/02/21 12:05:48;;;;;;;30.95;13.57;;;;;;;-6.44;43.35;97663.72;5031637;28;20095;-53
2023/02/21 12:08:54;;;;;;;29.05;14.35;;;;;;;-6.46;44.49;97673.38;5030531;28;20107;-55
2023/02/21 12:11:43;;;;;;;29.42;13.07;;;;;;;-6.49;43.45;97674.38;5043515;28;20079;-59
2023/02/21 12:14:26;;;;;;;32.17;13.40;;;;;;;-6.72;43.86;97677.19;5051947;28;20037;-60
2023/02/21 12:17:22;;;;;;;34.15;13.45;;;;;;;-6.78;44.32;97679.13;5051753;28;20044;-63
2023/02/21 12:20:07;;;;;;;31.08;15.15;;;;;;;-6.79;44.82;97687.84;5051291;28;20033;-55
2023/02/21 12:22:49;;;;;;;34.60;15.55;;;;;;;-6.91;44.93;97683.19;5047375;28;20040;-56
2023/02/21 12:25:38;;;;;;;32.45;14.40;;;;;;;-6.89;45.26;97683.97;5033010;28;20041;-58
2023/02/21 12:28:29;;;;;;;29.27;14.32;;;;;;;-6.79;45.26;97687.84;5042366;28;20086;-59
2023/02/21 12:31:13;;;;;;;27.48;14.57;;;;;;;-6.66;45.19;97689.91;5046865;28;20055;-55
2023/02/21 12:33:43;;;;;;;30.08;14.70;;;;;;;-6.75;44.71;97653.88;5045728;28;20044;-53
2023/02/21 12:36:19;;;;;;;30.98;14.48;;;;;;;-6.54;44.76;97698.91;5042255;28;20064;-55
2023/02/21 12:38:45;;;;;;;30.13;13.60;;;;;;;-6.62;44.70;97701.84;5031035;28;20119;-57
2023/02/21 12:41:23;;;;;;;29.55;14.65;;;;;;;-6.74;44.80;97705.03;5031663;28;20488;-57
2023/02/21 12:44:02;;;;;;;35.47;14.80;;;;;;;-6.84;44.87;97710.63;5046984;28;20090;-59
2023/02/21 12:46:41;;;;;;;32.85;14.18;;;;;;;-6.96;45.68;97700.78;5038943;28;20041;-53
2023/02/21 12:49:18;;;;;;;31.02;14.10;;;;;;;-6.94;45.40;97723.19;5051603;28;20037;-65
2023/02/21 12:51:52;;;;;;;31.55;14.32;;;;;;;-7.01;45.07;97739.97;5037279;28;20329;-59
2023/02/21 12:54:23;;;;;;;28.13;13.18;;;;;;;-7.07;45.23;97728.06;5044930;28;20048;-65
2023/02/21 12:57:24;;;;;;;29.98;13.95;;;;;;;-7.17;45.51;97729.38;5031587;28;20021;-69
2023/02/21 13:00:06;;;;;;;34.95;13.57;;;;;;;-7.21;45.82;97748.63;5032312;28;20033;-67
2023/02/21 13:02:41;;;;;;;30.05;14.07;;;;;;;-7.35;45.79;97741.41;5052029;28;20050;-67
2023/02/21 13:05:13;;;;;;;29.85;13.32;;;;;;;-7.46;45.77;97754.00;5055039;28;20075;-65
2023/02/21 13:08:02;;;;;;;31.13;13.48;;;;;;;-7.60;46.03;97746.75;5038848;28;20033;-65
2023/02/21 13:10:34;;;;;;;34.00;14.25;;;;;;;-7.82;46.40;97742.41;5035457;28;20099;-67
2023/02/21 13:13:13;;;;;;;30.42;13.25;;;;;;;-7.82;46.71;97758.88;5051833;28;20025;-66
2023/02/21 13:15:41;;;;;;;29.40;13.80;;;;;;;-7.89;46.48;97766.94;5054761;28;20063;-66
2023/02/21 13:18:14;;;;;;;28.70;13.18;;;;;;;-7.93;47.16;97759.28;5054879;28;20091;-65
2023/02/21 13:20:48;;;;;;;31.85;13.10;;;;;;;-7.89;46.49;97769.56;5054939;28;20040;-67
2023/02/21 13:23:35;;;;;;;28.80;12.88;;;;;;;-7.94;46.59;97767.97;5051803;28;20029;-58
2023/02/21 13:26:14;;;;;;;32.78;13.30;;;;;;;-8.07;46.60;97775.41;5035349;28;20041;-57
2023/02/21 13:28:40;;;;;;;26.13;12.43;;;;;;;-8.24;46.77;97765.63;5042926;28;20041;-56
2023/02/21 13:31:18;;;;;;;29.10;13.30;;;;;;;-8.43;47.32;97749.06;5038327;28;20053;-53
2023/02/21 13:33:49;;;;;;;29.80;13.45;;;;;;;-8.24;47.00;97788.16;5038080;28;20037;-61
2023/02/21 13:36:42;;;;;;;29.48;13.88;;;;;;;-8.36;46.65;97784.28;5050955;28;20059;-58
2023/02/21 13:39:07;;;;;;;28.88;13.10;;;;;;;-8.48;47.18;97806.31;5045975;28;20029;-59
2023/02/21 13:41:39;;;;;;;30.27;13.88;;;;;;;-8.57;47.57;97817.06;5053603;28;20462;-60
2023/02/21 13:44:09;;;;;;;31.73;13.27;;;;;;;-8.76;47.59;97811.66;5054414;28;20025;-57
2023/02/21 13:46:34;;;;;;;28.55;12.32;;;;;;;-8.81;47.63;97828.25;5053949;28;20465;-59
2023/02/21 13:49:38;;;;;;;26.42;12.43;;;;;;;-8.88;47.82;97818.13;5053010;28;20028;-55